首页
METAR-TAF:

METAR-TAF

机场 :

海地角, 海地

纬度: 19-43-59N, 经度: 72-11-41W, 海拔: 3米

METAR: 丢失

时间: 20:24 (00:24 UTC)

预报

该预报发布于6小时和58分钟前的17:26 UTC
预报有效从28日的 18点(UTC)到 29日的 18点(UTC)
风速14节,风向北转东北
能見度: 9000
散云层高于2600英尺, 积雨云.
多云层高于3000英尺
几率 30% :
短暂存在
从 29日的 00点(UTC)到 29日的 06点(UTC)
能見度: 4900
散云层高于1800英尺, 积雨云.
多云层高于4000英尺
雷暴, 雨
从 29日的 0700点(UTC)
风速2节,风向多变
能見度: 7000
散云层高于2000英尺

TAF: MTCH 281726Z 2818/2918 02014KT 9000 SCT026CB BKN030 PROB30 TEMPO 2900/2906 4900 TSRA SCT018CB BKN040 FM290700 VRB02KT 7000 SCT020

超过4000个机场的气象观测和天气预报(METAR&TAF报告)。

可查询的气象台以黄色和红色小点在地图上表示。

将鼠标移到小点上方,可查看气象台名称。

然后点击查看天气观测和预报。

如需切换地图:点击带黑十字的绿色按钮放大地图;点击带横线的绿色按钮缩小地图;或者点击绿色箭头查看邻近地区的地图。


METAR-TAF: